createdAt,value
2024-05-09T00:01:01.508Z,101306.16
2024-05-09T00:03:48.564Z,101300.59
2024-05-09T00:06:35.463Z,101290.02
2024-05-09T00:09:22.886Z,101285.46
2024-05-09T00:12:09.702Z,101277.55
2024-05-09T00:14:57.238Z,101277.85
2024-05-09T00:17:47.206Z,101280.92
2024-05-09T00:20:38.990Z,101281.92
2024-05-09T00:23:28.876Z,101286.05
2024-05-09T00:26:19.088Z,101283.64
2024-05-09T00:29:14.894Z,101281.48
2024-05-09T00:32:02.125Z,101280.91
2024-05-09T00:34:49.641Z,101281.77
2024-05-09T00:37:36.498Z,101282.97
2024-05-09T00:40:34.761Z,101285.67
2024-05-09T00:43:29.165Z,101289.75
2024-05-09T00:46:17.201Z,101293.16
2024-05-09T00:49:05.214Z,101294.17
2024-05-09T00:51:52.681Z,101290.02
2024-05-09T00:54:42.752Z,101291.84
2024-05-09T00:57:30.284Z,101286.73
2024-05-09T01:00:26.607Z,101282.79
2024-05-09T01:03:19.343Z,101283.81
2024-05-09T01:06:07.321Z,101277.98
2024-05-09T01:08:54.526Z,101276.95
2024-05-09T01:11:42.008Z,101277.97
2024-05-09T01:14:29.030Z,101278.35
2024-05-09T01:17:16.212Z,101273.04
2024-05-09T01:20:20.184Z,101274.91
2024-05-09T01:23:15.866Z,101268.73
2024-05-09T01:26:03.575Z,101269.96
2024-05-09T01:28:50.522Z,101271.61
2024-05-09T01:31:37.446Z,101273.59
2024-05-09T01:34:25.597Z,101270.67
2024-05-09T01:37:12.315Z,101271.50
2024-05-09T01:39:59.328Z,101268.76
2024-05-09T01:42:46.354Z,101265.79
2024-05-09T01:45:33.991Z,101267.02
2024-05-09T01:48:21.460Z,101268.80
2024-05-09T01:51:08.922Z,101266.04
2024-05-09T01:53:55.829Z,101266.02
2024-05-09T01:56:42.742Z,101263.06
2024-05-09T01:59:30.656Z,101268.91
2024-05-09T02:02:17.978Z,101264.41
2024-05-09T02:05:06.285Z,101269.74
2024-05-09T02:07:53.546Z,101265.06
2024-05-09T02:10:40.854Z,101267.63
2024-05-09T02:13:27.721Z,101273.21
2024-05-09T02:16:17.512Z,101278.40
2024-05-09T02:19:04.735Z,101280.66
2024-05-09T02:21:52.040Z,101284.56
2024-05-09T02:24:38.635Z,101281.19
2024-05-09T02:27:25.471Z,101278.52
2024-05-09T02:30:18.975Z,101281.41
2024-05-09T02:33:14.375Z,101281.59
2024-05-09T02:36:01.871Z,101279.51
2024-05-09T02:38:49.177Z,101283.95
2024-05-09T02:41:45.726Z,101281.70
2024-05-09T02:44:32.712Z,101281.83
2024-05-09T02:47:20.275Z,101281.81
2024-05-09T02:50:08.312Z,101285.48
2024-05-09T02:52:55.350Z,101289.20
2024-05-09T02:55:42.831Z,101286.70
2024-05-09T02:58:32.635Z,101290.02
2024-05-09T03:01:19.907Z,101292.88
2024-05-09T03:04:07.235Z,101295.11
2024-05-09T03:06:54.596Z,101294.42
2024-05-09T03:09:46.732Z,101295.08
2024-05-09T03:12:35.809Z,101289.00
2024-05-09T03:15:23.830Z,101289.68
2024-05-09T03:18:11.520Z,101294.13
2024-05-09T03:20:59.254Z,101296.73
2024-05-09T03:23:49.321Z,101291.92
2024-05-09T03:26:36.217Z,101290.52
2024-05-09T03:29:23.430Z,101295.84
2024-05-09T03:32:21.945Z,101294.65
2024-05-09T03:35:09.289Z,101298.41
2024-05-09T03:37:56.045Z,101295.89
2024-05-09T03:40:50.106Z,101293.40
2024-05-09T03:43:38.046Z,101294.53
2024-05-09T03:46:25.064Z,101295.72
2024-05-09T03:49:12.695Z,101294.27
2024-05-09T03:52:04.848Z,101292.68
2024-05-09T03:54:52.355Z,101295.35
2024-05-09T03:57:42.440Z,101292.27
2024-05-09T04:00:36.941Z,101296.04
2024-05-09T04:03:26.089Z,101298.91
2024-05-09T04:06:20.267Z,101304.21
2024-05-09T04:09:07.289Z,101308.52
2024-05-09T04:11:54.699Z,101314.52
2024-05-09T04:14:42.718Z,101313.24
2024-05-09T04:17:30.262Z,101313.27
2024-05-09T04:20:28.770Z,101311.10
2024-05-09T04:23:23.189Z,101317.13
2024-05-09T04:26:10.421Z,101316.12
2024-05-09T04:28:58.322Z,101315.17
2024-05-09T04:31:45.057Z,101316.27
2024-05-09T04:34:34.036Z,101317.96
2024-05-09T04:37:25.206Z,101321.15
2024-05-09T04:40:23.982Z,101319.94
2024-05-09T04:43:19.398Z,101322.24
2024-05-09T04:46:06.848Z,101322.80
2024-05-09T04:48:54.065Z,101322.06
2024-05-09T04:51:41.577Z,101325.26
2024-05-09T04:54:34.320Z,101325.20
2024-05-09T04:57:24.108Z,101325.76
2024-05-09T05:00:14.821Z,101329.92
2024-05-09T05:03:12.607Z,101338.68
2024-05-09T05:06:02.176Z,101344.98
2024-05-09T05:08:49.272Z,101350.10
2024-05-09T05:11:36.610Z,101352.82
2024-05-09T05:14:24.047Z,101355.02
2024-05-09T05:17:11.169Z,101360.38
2024-05-09T05:20:01.768Z,101366.63
2024-05-09T05:22:48.267Z,101367.70
2024-05-09T05:25:35.563Z,101367.93
2024-05-09T05:28:23.000Z,101366.44
2024-05-09T05:31:10.029Z,101368.07
2024-05-09T05:33:57.146Z,101364.58
2024-05-09T05:36:44.129Z,101363.62
2024-05-09T05:39:31.141Z,101362.70
2024-05-09T05:42:17.877Z,101362.72
2024-05-09T05:45:08.284Z,101364.40
2024-05-09T05:47:57.232Z,101368.20
2024-05-09T05:50:45.029Z,101363.48
2024-05-09T05:53:32.201Z,101363.11
2024-05-09T05:56:19.432Z,101365.05
2024-05-09T05:59:06.554Z,101367.84
2024-05-09T06:01:53.349Z,101370.64
2024-05-09T06:04:40.491Z,101373.91
2024-05-09T06:07:27.968Z,101376.10
2024-05-09T06:10:21.394Z,101376.84
2024-05-09T06:13:13.435Z,101375.98
2024-05-09T06:16:02.006Z,101380.41
2024-05-09T06:18:48.618Z,101379.34
2024-05-09T06:21:35.926Z,101376.73
2024-05-09T06:24:23.061Z,101374.08
2024-05-09T06:27:10.576Z,101369.17
2024-05-09T06:29:57.910Z,101366.03
2024-05-09T06:32:44.833Z,101368.58
2024-05-09T06:35:32.711Z,101365.73
2024-05-09T06:38:20.221Z,101367.91
2024-05-09T06:41:07.114Z,101371.95
2024-05-09T06:43:54.758Z,101371.89
2024-05-09T06:46:42.169Z,101370.77
2024-05-09T06:49:31.469Z,101373.23
2024-05-09T06:52:19.482Z,101374.59
2024-05-09T06:55:07.177Z,101372.55
2024-05-09T06:57:54.623Z,101373.14
2024-05-09T07:00:42.480Z,101380.40
2024-05-09T07:03:30.134Z,101383.79
2024-05-09T07:06:17.258Z,101382.35
2024-05-09T07:09:04.821Z,101384.40
2024-05-09T07:11:51.813Z,101388.78
2024-05-09T07:14:38.837Z,101392.55
2024-05-09T07:17:27.203Z,101397.55
2024-05-09T07:20:23.177Z,101396.64
2024-05-09T07:23:16.027Z,101397.01
2024-05-09T07:26:03.761Z,101398.80
2024-05-09T07:28:50.654Z,101395.88
2024-05-09T07:31:37.632Z,101397.94
2024-05-09T07:34:25.054Z,101400.48
2024-05-09T07:37:13.437Z,101401.29
2024-05-09T07:40:00.626Z,101400.48
2024-05-09T07:42:47.979Z,101398.26
2024-05-09T07:50:00.456Z,101397.05
2024-05-09T07:54:31.999Z,101392.36
2024-05-09T07:57:19.619Z,101393.08
2024-05-09T08:00:08.249Z,101397.96
2024-05-09T08:02:58.979Z,101398.66
2024-05-09T08:05:46.138Z,101399.45
2024-05-09T08:08:33.209Z,101395.49
2024-05-09T08:11:20.380Z,101391.23
2024-05-09T08:14:07.311Z,101390.55
2024-05-09T08:16:54.671Z,101393.65
2024-05-09T08:19:41.851Z,101387.14
2024-05-09T08:22:31.936Z,101387.55
2024-05-09T08:25:18.775Z,101386.54
2024-05-09T08:28:06.489Z,101390.70
2024-05-09T08:30:53.757Z,101390.45
2024-05-09T08:33:45.253Z,101386.42
2024-05-09T08:36:33.406Z,101389.40
2024-05-09T08:39:20.168Z,101388.28
2024-05-09T08:42:08.314Z,101391.34
2024-05-09T08:44:55.438Z,101393.33
2024-05-09T08:47:42.849Z,101393.48
2024-05-09T08:50:36.570Z,101391.27
2024-05-09T08:53:26.011Z,101391.18
2024-05-09T08:56:13.114Z,101384.24
2024-05-09T08:59:01.356Z,101385.19
2024-05-09T09:01:48.299Z,101385.92
2024-05-09T09:04:35.807Z,101386.87
2024-05-09T09:07:22.708Z,101382.42
2024-05-09T09:10:12.989Z,101386.27
2024-05-09T09:13:03.923Z,101389.73
2024-05-09T09:15:52.026Z,101389.80
2024-05-09T09:18:39.400Z,101386.85
2024-05-09T09:21:26.856Z,101382.34
2024-05-09T09:24:14.135Z,101379.25
2024-05-09T09:27:01.457Z,101384.00
2024-05-09T09:29:48.773Z,101382.55
2024-05-09T09:32:35.797Z,101378.67
2024-05-09T09:35:23.252Z,101372.95
2024-05-09T09:38:10.956Z,101370.15
2024-05-09T09:40:57.896Z,101366.12
2024-05-09T09:43:44.577Z,101371.20
2024-05-09T09:46:31.407Z,101372.98
2024-05-09T09:49:18.956Z,101366.38
2024-05-09T09:52:07.628Z,101371.77
2024-05-09T09:54:56.392Z,101370.49
2024-05-09T09:57:44.316Z,101369.50
2024-05-09T10:00:33.405Z,101363.83
2024-05-09T10:03:21.698Z,101361.19
2024-05-09T10:06:09.581Z,101355.80
2024-05-09T10:08:56.652Z,101359.58
2024-05-09T10:11:49.184Z,101356.23
2024-05-09T10:14:49.113Z,101359.89
2024-05-09T10:17:36.539Z,101356.98
2024-05-09T10:20:27.962Z,101354.31
2024-05-09T10:23:27.183Z,101349.77
2024-05-09T10:26:14.653Z,101345.38
2024-05-09T10:29:24.006Z,101341.30
2024-05-09T10:32:11.127Z,101338.66
2024-05-09T10:35:07.255Z,101336.15
2024-05-09T10:37:54.254Z,101336.75
2024-05-09T10:40:41.609Z,101336.95
2024-05-09T10:43:28.771Z,101335.05
2024-05-09T10:46:16.033Z,101335.46
2024-05-09T10:49:06.193Z,101332.81
2024-05-09T10:51:54.783Z,101327.84
2024-05-09T10:54:41.889Z,101328.64
2024-05-09T10:57:37.432Z,101327.39
2024-05-09T11:00:35.580Z,101326.69
2024-05-09T11:03:24.716Z,101319.92
2024-05-09T11:06:12.462Z,101315.05
2024-05-09T11:09:00.116Z,101313.21
2024-05-09T11:11:47.562Z,101309.94
2024-05-09T11:14:34.853Z,101311.04
2024-05-09T11:17:22.305Z,101308.04
2024-05-09T11:20:16.713Z,101299.73
2024-05-09T11:23:06.733Z,101298.30
2024-05-09T11:25:55.290Z,101294.58
2024-05-09T11:28:45.780Z,101291.58
2024-05-09T11:34:20.584Z,101287.49
2024-05-09T11:37:08.729Z,101283.41
2024-05-09T11:39:56.122Z,101277.88
2024-05-09T11:42:43.383Z,101275.17
2024-05-09T11:45:30.603Z,101275.40
2024-05-09T11:48:18.451Z,101280.31
2024-05-09T11:51:05.690Z,101274.21
2024-05-09T11:53:53.132Z,101271.70
2024-05-09T11:56:40.468Z,101273.02
2024-05-09T11:59:27.854Z,101270.85
2024-05-09T12:02:15.020Z,101265.27
2024-05-09T12:05:02.608Z,101260.52
2024-05-09T12:07:53.408Z,101258.20
2024-05-09T12:10:41.378Z,101258.79
2024-05-09T12:13:28.736Z,101256.67
2024-05-09T12:16:15.998Z,101251.04
2024-05-09T12:19:03.754Z,101250.92
2024-05-09T12:21:51.173Z,101246.10
2024-05-09T12:24:38.436Z,101244.70
2024-05-09T12:27:25.711Z,101239.20
2024-05-09T12:30:20.711Z,101237.51
2024-05-09T12:33:15.429Z,101234.63
2024-05-09T12:36:03.239Z,101237.09
2024-05-09T12:38:50.769Z,101236.85
2024-05-09T12:41:37.867Z,101228.20
2024-05-09T12:44:24.794Z,101228.95
2024-05-09T12:47:12.322Z,101228.86
2024-05-09T12:49:59.860Z,101225.56
2024-05-09T12:52:46.493Z,101225.20
2024-05-09T12:55:40.964Z,101221.89
2024-05-09T12:58:35.837Z,101220.63
2024-05-09T13:01:23.142Z,101214.65
2024-05-09T13:04:10.288Z,101214.69
2024-05-09T13:06:57.316Z,101215.38
2024-05-09T13:09:44.029Z,101213.73
2024-05-09T13:12:31.882Z,101213.06
2024-05-09T13:15:19.502Z,101210.52
2024-05-09T13:18:07.317Z,101214.02
2024-05-09T13:20:54.648Z,101212.84
2024-05-09T13:23:42.047Z,101208.54
2024-05-09T13:26:28.861Z,101208.45
2024-05-09T13:29:16.308Z,101200.02
2024-05-09T13:32:04.115Z,101203.85
2024-05-09T13:34:51.592Z,101205.36
2024-05-09T13:37:38.751Z,101203.44
2024-05-09T13:40:32.728Z,101198.11
2024-05-09T13:43:23.103Z,101201.78
2024-05-09T13:46:09.983Z,101199.11
2024-05-09T13:48:57.295Z,101197.81
2024-05-09T13:51:44.663Z,101198.68
2024-05-09T13:54:32.144Z,101190.98
2024-05-09T13:57:19.364Z,101194.44
2024-05-09T14:00:12.063Z,101188.95
2024-05-09T14:03:02.571Z,101188.84
2024-05-09T14:05:51.948Z,101186.61
2024-05-09T14:08:39.487Z,101183.27
2024-05-09T14:11:27.283Z,101185.69
2024-05-09T14:14:14.538Z,101183.79
2024-05-09T14:17:02.019Z,101180.37
2024-05-09T14:19:49.288Z,101183.45
2024-05-09T14:22:36.636Z,101186.95
2024-05-09T14:25:26.055Z,101178.84
2024-05-09T14:28:13.771Z,101175.70
2024-05-09T14:31:01.644Z,101176.19
2024-05-09T14:33:49.175Z,101178.73
2024-05-09T14:36:36.646Z,101181.98
2024-05-09T14:39:23.528Z,101176.55
2024-05-09T14:42:10.828Z,101177.33
2024-05-09T14:44:57.934Z,101176.30
2024-05-09T14:47:44.830Z,101166.56
2024-05-09T14:50:36.737Z,101164.70
2024-05-09T14:53:27.897Z,101159.89
2024-05-09T14:56:15.364Z,101159.92
2024-05-09T14:59:03.394Z,101156.48
2024-05-09T15:01:50.852Z,101159.52
2024-05-09T15:04:38.434Z,101150.91
2024-05-09T15:07:25.445Z,101151.59
2024-05-09T15:10:20.337Z,101154.02
2024-05-09T15:13:13.238Z,101147.23
2024-05-09T15:16:01.902Z,101148.23
2024-05-09T15:18:49.496Z,101150.33
2024-05-09T15:21:37.140Z,101146.80
2024-05-09T15:24:23.900Z,101144.45
2024-05-09T15:27:11.796Z,101142.88
2024-05-09T15:30:01.948Z,101138.69
2024-05-09T15:32:49.222Z,101133.42
2024-05-09T15:35:40.883Z,101132.61
2024-05-09T15:38:27.901Z,101129.20
2024-05-09T15:41:15.144Z,101135.88
2024-05-09T15:44:02.140Z,101134.73
2024-05-09T15:46:48.970Z,101136.36
2024-05-09T15:49:35.990Z,101130.45
2024-05-09T15:52:23.292Z,101128.29
2024-05-09T15:55:10.188Z,101126.07
2024-05-09T15:57:56.832Z,101125.96
2024-05-09T16:00:46.291Z,101121.23
2024-05-09T16:03:35.180Z,101126.63
2024-05-09T16:06:23.070Z,101125.30
2024-05-09T16:09:10.233Z,101124.44
2024-05-09T16:11:57.038Z,101122.63
2024-05-09T16:14:45.274Z,101122.83
2024-05-09T16:17:32.717Z,101129.77
2024-05-09T16:20:29.942Z,101134.43
2024-05-09T16:23:26.479Z,101138.27
2024-05-09T16:26:13.776Z,101139.17
2024-05-09T16:29:01.251Z,101141.06
2024-05-09T16:31:48.331Z,101142.48
2024-05-09T16:34:35.989Z,101142.30
2024-05-09T16:37:24.685Z,101147.23
2024-05-09T16:40:21.996Z,101146.50
2024-05-09T16:43:17.209Z,101151.06
2024-05-09T16:46:08.591Z,101153.70
2024-05-09T16:48:55.879Z,101154.61
2024-05-09T16:51:43.457Z,101158.25
2024-05-09T16:54:30.375Z,101161.29
2024-05-09T16:57:17.602Z,101162.47
2024-05-09T17:00:09.327Z,101162.14
2024-05-09T17:02:59.362Z,101157.83
2024-05-09T17:05:47.740Z,101155.30
2024-05-09T17:08:36.877Z,101161.68
2024-05-09T17:11:24.258Z,101158.64
2024-05-09T17:14:11.710Z,101158.96
2024-05-09T17:16:58.679Z,101160.83
2024-05-09T17:19:47.206Z,101158.20
2024-05-09T17:22:34.831Z,101160.27
2024-05-09T17:25:22.481Z,101158.31
2024-05-09T17:28:10.448Z,101157.68
2024-05-09T17:30:58.514Z,101156.98
2024-05-09T17:33:45.567Z,101158.98
2024-05-09T17:36:33.141Z,101162.98
2024-05-09T17:39:20.222Z,101160.23
2024-05-09T17:42:07.111Z,101162.06
2024-05-09T17:44:54.968Z,101171.77
2024-05-09T17:47:42.440Z,101169.98
2024-05-09T17:53:20.037Z,101176.55
2024-05-09T17:56:07.999Z,101182.65
2024-05-09T17:58:55.155Z,101190.51
2024-05-09T18:01:42.698Z,101196.53
2024-05-09T18:04:33.291Z,101203.79
2024-05-09T18:07:20.993Z,101208.95
2024-05-09T18:10:16.054Z,101210.17
2024-05-09T18:13:10.801Z,101208.85
2024-05-09T18:15:58.750Z,101212.07
2024-05-09T18:18:46.402Z,101219.67
2024-05-09T18:21:33.715Z,101222.64
2024-05-09T18:24:22.203Z,101225.69
2024-05-09T18:27:09.379Z,101235.77
2024-05-09T18:29:56.591Z,101239.36
2024-05-09T18:32:43.988Z,101242.99
2024-05-09T18:35:31.064Z,101245.34
2024-05-09T18:38:19.082Z,101244.89
2024-05-09T18:41:06.155Z,101247.77
2024-05-09T18:43:54.954Z,101252.11
2024-05-09T18:46:41.664Z,101255.17
2024-05-09T18:49:29.292Z,101260.10
2024-05-09T18:52:16.312Z,101261.17
2024-05-09T18:55:04.376Z,101258.63
2024-05-09T18:57:51.512Z,101260.55
2024-05-09T19:00:41.323Z,101260.16
2024-05-09T19:03:30.894Z,101263.74
2024-05-09T19:06:21.051Z,101267.40
2024-05-09T19:09:09.982Z,101266.08
2024-05-09T19:12:00.420Z,101266.30
2024-05-09T19:14:47.773Z,101267.38
2024-05-09T19:17:34.870Z,101271.25
2024-05-09T19:20:28.617Z,101267.63
2024-05-09T19:23:20.564Z,101272.05
2024-05-09T19:26:08.331Z,101272.79
2024-05-09T19:28:55.561Z,101271.64
2024-05-09T19:31:42.263Z,101276.41
2024-05-09T19:34:29.560Z,101277.68
2024-05-09T19:37:16.713Z,101279.77
2024-05-09T19:40:06.771Z,101279.20
2024-05-09T19:42:55.610Z,101285.80
2024-05-09T19:45:43.343Z,101285.02
2024-05-09T19:48:30.735Z,101287.67
2024-05-09T19:51:18.227Z,101288.77
2024-05-09T19:54:04.936Z,101287.09
2024-05-09T19:56:52.260Z,101286.10
2024-05-09T19:59:38.770Z,101290.45
2024-05-09T20:02:25.833Z,101289.61
2024-05-09T20:05:12.577Z,101293.22
2024-05-09T20:08:00.049Z,101292.27
2024-05-09T20:10:47.101Z,101294.27
2024-05-09T20:13:34.292Z,101295.65
2024-05-09T20:16:21.543Z,101292.79
2024-05-09T20:19:08.528Z,101292.73
2024-05-09T20:21:55.584Z,101291.30
2024-05-09T20:24:42.536Z,101288.70
2024-05-09T20:27:30.135Z,101287.21
2024-05-09T20:30:25.316Z,101285.08
2024-05-09T20:33:18.993Z,101289.45
2024-05-09T20:36:06.145Z,101287.79
2024-05-09T20:38:53.560Z,101285.30
2024-05-09T20:41:43.758Z,101287.80
2024-05-09T20:44:34.254Z,101292.86
2024-05-09T20:47:21.840Z,101292.98
2024-05-09T20:50:20.164Z,101292.73
2024-05-09T20:53:15.644Z,101294.88
2024-05-09T20:56:02.896Z,101296.95
2024-05-09T20:58:49.710Z,101297.70
2024-05-09T21:01:36.767Z,101297.03
2024-05-09T21:04:24.109Z,101299.05
2024-05-09T21:07:12.047Z,101302.54
2024-05-09T21:10:02.372Z,101308.60
2024-05-09T21:12:49.955Z,101307.67
2024-05-09T21:15:37.183Z,101307.30
2024-05-09T21:18:24.527Z,101308.34
2024-05-09T21:21:11.343Z,101311.66
2024-05-09T21:23:58.167Z,101308.00
2024-05-09T21:26:45.289Z,101308.45
2024-05-09T21:29:32.398Z,101308.23
2024-05-09T21:32:20.877Z,101315.84
2024-05-09T21:35:07.972Z,101316.63
2024-05-09T21:37:55.135Z,101315.52
2024-05-09T21:40:42.385Z,101317.20
2024-05-09T21:43:31.287Z,101317.67
2024-05-09T21:46:18.293Z,101316.32
2024-05-09T21:49:05.346Z,101318.33
2024-05-09T21:51:52.549Z,101318.88
2024-05-09T21:54:38.975Z,101316.69
2024-05-09T21:57:25.818Z,101317.17
2024-05-09T22:00:28.177Z,101319.78
2024-05-09T22:03:22.044Z,101318.21
2024-05-09T22:06:08.891Z,101321.90
2024-05-09T22:08:56.227Z,101322.65
2024-05-09T22:11:48.060Z,101324.44
2024-05-09T22:14:36.801Z,101326.95
2024-05-09T22:17:24.257Z,101330.86
2024-05-09T22:20:18.083Z,101330.67
2024-05-09T22:23:09.519Z,101332.75
2024-05-09T22:25:56.855Z,101337.48
2024-05-09T22:28:44.471Z,101335.69
2024-05-09T22:31:31.943Z,101335.70
2024-05-09T22:34:19.164Z,101338.80
2024-05-09T22:37:06.460Z,101343.24
2024-05-09T22:39:53.554Z,101340.48
2024-05-09T22:42:41.112Z,101339.84
2024-05-09T22:45:28.602Z,101342.94
2024-05-09T22:48:15.748Z,101343.21
2024-05-09T22:51:03.048Z,101340.20
2024-05-09T22:53:49.861Z,101341.27
2024-05-09T22:56:37.095Z,101334.40
2024-05-09T22:59:23.887Z,101337.42
2024-05-09T23:02:10.732Z,101343.33
2024-05-09T23:04:58.124Z,101339.83
2024-05-09T23:07:45.439Z,101334.89
2024-05-09T23:10:36.656Z,101339.06
2024-05-09T23:13:25.749Z,101338.39
2024-05-09T23:16:13.532Z,101335.63
2024-05-09T23:19:00.780Z,101338.48
2024-05-09T23:21:47.826Z,101338.18
2024-05-09T23:24:35.268Z,101339.02
2024-05-09T23:27:22.034Z,101340.36
2024-05-09T23:30:12.431Z,101345.69
2024-05-09T23:33:02.439Z,101338.55
2024-05-09T23:35:52.069Z,101342.58
2024-05-09T23:38:40.318Z,101340.46
2024-05-09T23:41:27.144Z,101338.83
2024-05-09T23:44:14.459Z,101342.14
2024-05-09T23:47:05.381Z,101346.69
2024-05-09T23:49:56.115Z,101342.68
2024-05-09T23:52:46.360Z,101342.71
2024-05-09T23:55:36.527Z,101344.83
2024-05-09T23:58:23.795Z,101343.70
